createdAt,value
2022-09-20T00:01:34.376Z,63.20
2022-09-20T00:04:07.993Z,63.20
2022-09-20T00:06:37.539Z,63.30
2022-09-20T00:09:05.319Z,63.60
2022-09-20T00:11:34.802Z,63.20
2022-09-20T00:14:06.172Z,63.60
2022-09-20T00:16:35.792Z,63.40
2022-09-20T00:19:04.421Z,63.40
2022-09-20T00:21:32.643Z,62.80
2022-09-20T00:24:02.000Z,63.40
2022-09-20T00:26:31.090Z,63.80
2022-09-20T00:28:58.663Z,63.40
2022-09-20T00:31:27.949Z,63.70
2022-09-20T00:34:15.237Z,63.50
2022-09-20T00:36:41.881Z,63.90
2022-09-20T00:39:11.890Z,63.90
2022-09-20T00:41:38.671Z,64.00
2022-09-20T00:44:56.711Z,63.50
2022-09-20T00:47:38.376Z,63.80
2022-09-20T00:50:20.940Z,63.70
2022-09-20T00:52:51.529Z,63.60
2022-09-20T00:55:19.944Z,63.80
2022-09-20T00:57:47.091Z,63.60
2022-09-20T01:00:15.085Z,64.00
2022-09-20T01:02:49.256Z,64.10
2022-09-20T01:05:17.473Z,64.10
2022-09-20T01:07:45.712Z,64.20
2022-09-20T01:10:15.131Z,64.30
2022-09-20T01:12:51.371Z,64.00
2022-09-20T01:15:19.012Z,64.20
2022-09-20T01:17:52.651Z,64.10
2022-09-20T01:20:26.540Z,64.00
2022-09-20T01:23:01.085Z,64.60
2022-09-20T01:26:12.127Z,65.00
2022-09-20T01:28:42.254Z,64.60
2022-09-20T01:31:16.270Z,64.70
2022-09-20T01:34:14.617Z,64.90
2022-09-20T01:36:51.990Z,64.40
2022-09-20T01:39:21.583Z,64.80
2022-09-20T01:41:58.830Z,64.80
2022-09-20T01:44:34.335Z,64.90
2022-09-20T01:47:12.926Z,65.00
2022-09-20T01:50:29.872Z,65.80
2022-09-20T01:53:11.093Z,65.30
2022-09-20T01:55:40.831Z,65.20
2022-09-20T01:58:07.433Z,65.80
2022-09-20T02:00:46.046Z,65.40
2022-09-20T02:03:43.624Z,65.60
2022-09-20T02:06:48.727Z,65.40
2022-09-20T02:09:36.673Z,65.20
2022-09-20T02:12:27.135Z,65.30
2022-09-20T02:15:36.426Z,65.20
2022-09-20T02:18:28.039Z,65.70
2022-09-20T02:21:29.612Z,65.30
2022-09-20T02:24:13.209Z,65.10
2022-09-20T02:27:17.242Z,65.50
2022-09-20T02:29:44.077Z,65.20
2022-09-20T02:32:24.829Z,65.10
2022-09-20T02:35:20.393Z,65.00
2022-09-20T02:38:20.401Z,64.90
2022-09-20T02:40:47.359Z,64.80
2022-09-20T02:43:37.554Z,64.70
2022-09-20T02:46:13.806Z,64.70
2022-09-20T02:49:17.328Z,64.70
2022-09-20T02:51:53.675Z,64.60
2022-09-20T02:54:56.784Z,64.50
2022-09-20T02:57:39.965Z,64.50
2022-09-20T03:00:14.674Z,64.40
2022-09-20T03:03:04.637Z,64.20
2022-09-20T03:05:37.939Z,64.50
2022-09-20T03:08:18.113Z,64.60
2022-09-20T03:10:53.007Z,64.80
2022-09-20T03:13:31.944Z,64.70
2022-09-20T03:16:10.916Z,64.50
2022-09-20T03:19:11.943Z,64.40
2022-09-20T03:22:09.738Z,64.20
2022-09-20T03:24:45.457Z,64.10
2022-09-20T03:27:39.673Z,63.70
2022-09-20T03:30:16.111Z,63.90
2022-09-20T03:32:45.814Z,63.40
2022-09-20T03:35:45.300Z,63.70
2022-09-20T03:38:30.751Z,63.80
2022-09-20T03:41:47.778Z,64.30
2022-09-20T03:44:27.929Z,63.50
2022-09-20T03:50:39.167Z,63.50
2022-09-20T03:53:33.188Z,63.50
2022-09-20T03:56:24.423Z,63.10
2022-09-20T03:59:10.839Z,63.00
2022-09-20T04:01:49.245Z,63.10
2022-09-20T04:04:25.066Z,63.20
2022-09-20T04:07:16.782Z,63.10
2022-09-20T04:10:04.605Z,62.90
2022-09-20T04:12:49.017Z,63.00
2022-09-20T04:15:42.069Z,63.00
2022-09-20T04:18:49.657Z,62.70
2022-09-20T04:21:40.724Z,62.50
2022-09-20T04:24:25.091Z,62.90
2022-09-20T04:27:08.404Z,62.80
2022-09-20T04:29:48.030Z,62.50
2022-09-20T04:32:30.909Z,62.60
2022-09-20T04:35:39.327Z,62.70
2022-09-20T04:38:12.305Z,63.10
2022-09-20T04:41:16.403Z,63.10
2022-09-20T04:44:01.944Z,63.20
2022-09-20T04:47:06.810Z,63.30
2022-09-20T04:50:11.473Z,63.00
2022-09-20T04:53:05.492Z,63.50
2022-09-20T04:56:08.164Z,63.50
2022-09-20T04:58:50.373Z,64.00
2022-09-20T05:01:32.853Z,64.10
2022-09-20T05:04:38.171Z,64.00
2022-09-20T05:07:35.372Z,64.40
2022-09-20T05:10:29.983Z,64.20
2022-09-20T05:12:56.629Z,64.30
2022-09-20T05:15:58.652Z,64.70
2022-09-20T05:18:44.777Z,64.30
2022-09-20T05:21:17.445Z,64.80
2022-09-20T05:24:08.401Z,64.60
2022-09-20T05:26:46.932Z,65.20
2022-09-20T05:29:44.280Z,65.10
2022-09-20T05:32:35.482Z,65.50
2022-09-20T05:35:11.525Z,65.00
2022-09-20T05:38:03.031Z,64.80
2022-09-20T05:41:09.223Z,65.00
2022-09-20T05:44:03.251Z,65.10
2022-09-20T05:47:07.724Z,65.00
2022-09-20T05:50:19.118Z,64.70
2022-09-20T05:53:10.504Z,64.60
2022-09-20T05:55:54.232Z,65.00
2022-09-20T05:58:58.606Z,64.60
2022-09-20T06:01:33.857Z,64.30
2022-09-20T06:04:26.001Z,64.30
2022-09-20T06:07:03.545Z,64.00
2022-09-20T06:09:55.228Z,64.70
2022-09-20T06:12:21.873Z,64.80
2022-09-20T06:15:00.044Z,64.70
2022-09-20T06:17:39.446Z,65.00
2022-09-20T06:20:32.087Z,64.80
2022-09-20T06:23:01.246Z,65.50
2022-09-20T06:25:47.553Z,65.20
2022-09-20T06:28:16.616Z,64.80
2022-09-20T06:30:55.871Z,64.80
2022-09-20T06:33:29.639Z,64.40
2022-09-20T06:36:26.959Z,63.90
2022-09-20T06:39:56.008Z,63.40
2022-09-20T06:42:26.918Z,63.50
2022-09-20T06:44:54.335Z,63.50
2022-09-20T06:47:23.133Z,64.20
2022-09-20T06:49:52.307Z,64.20
2022-09-20T06:52:23.015Z,64.70
2022-09-20T06:54:54.979Z,64.00
2022-09-20T06:57:30.888Z,63.70
2022-09-20T07:00:06.875Z,63.80
2022-09-20T07:02:33.741Z,62.70
2022-09-20T07:05:00.432Z,62.70
2022-09-20T07:07:27.520Z,62.80
2022-09-20T07:09:54.302Z,62.80
2022-09-20T07:12:21.128Z,62.40
2022-09-20T07:14:52.194Z,62.30
2022-09-20T07:17:18.934Z,62.70
2022-09-20T07:19:45.631Z,62.60
2022-09-20T07:22:12.278Z,62.50
2022-09-20T07:24:44.846Z,61.80
2022-09-20T07:27:14.917Z,61.90
2022-09-20T07:29:43.977Z,61.00
2022-09-20T07:32:10.643Z,60.60
2022-09-20T07:34:41.967Z,60.40
2022-09-20T07:37:08.832Z,60.60
2022-09-20T07:39:35.499Z,61.40
2022-09-20T07:42:07.387Z,60.80
2022-09-20T07:44:40.879Z,59.50
2022-09-20T07:47:11.182Z,57.60
2022-09-20T07:49:37.871Z,57.60
2022-09-20T07:52:07.607Z,57.40
2022-09-20T07:54:34.792Z,56.00
2022-09-20T07:57:01.548Z,55.60
2022-09-20T07:59:28.311Z,55.80
2022-09-20T08:01:55.093Z,55.50
2022-09-20T08:04:24.441Z,55.00
2022-09-20T08:06:51.107Z,54.80
2022-09-20T08:09:18.026Z,54.60
2022-09-20T08:11:46.212Z,54.50
2022-09-20T08:14:17.824Z,55.40
2022-09-20T08:16:47.306Z,54.70
2022-09-20T08:19:25.685Z,54.50
2022-09-20T08:21:53.786Z,53.20
2022-09-20T08:24:26.088Z,52.70
2022-09-20T08:26:53.080Z,52.50
2022-09-20T08:29:19.926Z,51.90
2022-09-20T08:31:47.105Z,51.60
2022-09-20T08:34:17.627Z,51.80
2022-09-20T08:36:51.757Z,52.00
2022-09-20T08:42:33.046Z,50.80
2022-09-20T08:45:07.771Z,50.30
2022-09-20T08:47:44.491Z,51.40
2022-09-20T08:50:18.095Z,50.50
2022-09-20T08:52:48.407Z,50.10
2022-09-20T08:55:24.782Z,50.00
2022-09-20T08:57:57.147Z,50.30
2022-09-20T09:00:28.013Z,50.00
2022-09-20T09:02:56.581Z,50.90
2022-09-20T09:05:35.942Z,50.20
2022-09-20T09:08:16.020Z,49.60
2022-09-20T09:10:57.637Z,50.30
2022-09-20T09:13:30.309Z,50.00
2022-09-20T09:16:03.178Z,49.30
2022-09-20T09:18:37.531Z,48.00
2022-09-20T09:21:08.471Z,48.90
2022-09-20T09:23:49.200Z,48.30
2022-09-20T09:26:21.050Z,48.40
2022-09-20T09:29:07.278Z,47.20
2022-09-20T09:31:34.190Z,47.60
2022-09-20T09:34:01.040Z,48.10
2022-09-20T09:36:28.033Z,47.40
2022-09-20T09:39:21.293Z,48.00
2022-09-20T09:41:48.030Z,47.70
2022-09-20T09:44:28.630Z,48.60
2022-09-20T09:46:59.492Z,48.40
2022-09-20T09:49:30.184Z,47.90
2022-09-20T09:52:04.890Z,48.00
2022-09-20T09:54:37.131Z,48.50
2022-09-20T09:57:32.995Z,48.20
2022-09-20T10:00:15.704Z,48.80
2022-09-20T10:03:15.480Z,48.20
2022-09-20T10:05:42.116Z,48.60
2022-09-20T10:08:38.857Z,49.10
2022-09-20T10:11:06.899Z,48.90
2022-09-20T10:13:40.738Z,48.60
2022-09-20T10:16:19.162Z,49.40
2022-09-20T10:19:21.979Z,47.80
2022-09-20T10:22:16.052Z,49.90
2022-09-20T10:24:55.977Z,48.80
2022-09-20T10:27:34.616Z,48.40
2022-09-20T10:30:20.170Z,47.80
2022-09-20T10:33:15.320Z,46.70
2022-09-20T10:35:42.255Z,47.40
2022-09-20T10:38:25.148Z,47.50
2022-09-20T10:41:28.235Z,47.10
2022-09-20T10:44:18.329Z,45.50
2022-09-20T10:47:12.232Z,44.80
2022-09-20T10:49:50.524Z,45.80
2022-09-20T10:52:41.965Z,45.60
2022-09-20T10:55:10.743Z,45.20
2022-09-20T10:58:06.202Z,45.50
2022-09-20T11:00:56.537Z,47.80
2022-09-20T11:03:38.292Z,46.50
2022-09-20T11:06:28.681Z,47.10
2022-09-20T11:08:59.082Z,47.70
2022-09-20T11:11:40.531Z,48.70
2022-09-20T11:14:23.076Z,50.20
2022-09-20T11:17:15.612Z,51.50
2022-09-20T11:20:06.198Z,52.60
2022-09-20T11:22:48.095Z,52.70
2022-09-20T11:25:52.665Z,52.50
2022-09-20T11:28:32.002Z,52.60
2022-09-20T11:31:16.082Z,54.10
2022-09-20T11:33:56.419Z,53.60
2022-09-20T11:36:52.152Z,52.60
2022-09-20T11:39:34.889Z,52.70
2022-09-20T11:42:03.436Z,51.20
2022-09-20T11:44:33.294Z,50.20
2022-09-20T11:47:09.833Z,49.60
2022-09-20T11:49:55.298Z,50.60
2022-09-20T11:52:30.180Z,50.70
2022-09-20T11:55:23.467Z,49.60
2022-09-20T11:58:09.165Z,49.60
2022-09-20T12:00:42.343Z,48.90
2022-09-20T12:03:33.382Z,48.80
2022-09-20T12:06:06.305Z,49.30
2022-09-20T12:08:37.237Z,48.70
2022-09-20T12:11:10.622Z,47.00
2022-09-20T12:13:44.096Z,46.70
2022-09-20T12:16:34.429Z,44.90
2022-09-20T12:19:05.279Z,43.80
2022-09-20T12:21:57.987Z,44.90
2022-09-20T12:24:29.931Z,44.40
2022-09-20T12:27:02.033Z,43.50
2022-09-20T12:29:31.220Z,43.00
2022-09-20T12:32:21.625Z,43.00
2022-09-20T12:34:48.389Z,43.50
2022-09-20T12:37:22.241Z,43.00
2022-09-20T12:39:55.521Z,46.40
2022-09-20T12:42:34.032Z,49.80
2022-09-20T12:45:17.523Z,47.90
2022-09-20T12:47:54.624Z,48.10
2022-09-20T12:50:42.193Z,49.50
2022-09-20T12:53:16.613Z,46.50
2022-09-20T12:56:01.754Z,44.60
2022-09-20T12:58:48.616Z,44.20
2022-09-20T13:01:15.464Z,44.10
2022-09-20T13:03:44.318Z,46.40
2022-09-20T13:06:19.785Z,45.50
2022-09-20T13:09:04.388Z,44.70
2022-09-20T13:11:52.455Z,43.40
2022-09-20T13:14:28.926Z,43.30
2022-09-20T13:17:19.218Z,45.00
2022-09-20T13:19:50.737Z,44.00
2022-09-20T13:22:30.268Z,43.30
2022-09-20T13:25:02.570Z,42.00
2022-09-20T13:27:34.980Z,43.10
2022-09-20T13:30:17.429Z,41.00
2022-09-20T13:32:47.543Z,41.30
2022-09-20T13:35:31.516Z,42.30
2022-09-20T13:38:05.961Z,42.90
2022-09-20T13:40:40.037Z,42.10
2022-09-20T13:43:23.971Z,42.90
2022-09-20T13:46:07.402Z,44.40
2022-09-20T13:48:34.813Z,44.60
2022-09-20T13:51:04.321Z,44.50
2022-09-20T13:53:41.471Z,44.50
2022-09-20T13:56:24.569Z,44.30
2022-09-20T13:58:52.628Z,43.70
2022-09-20T14:01:35.105Z,42.40
2022-09-20T14:04:08.612Z,43.40
2022-09-20T14:06:36.266Z,43.90
2022-09-20T14:09:11.067Z,44.00
2022-09-20T14:11:39.586Z,45.10
2022-09-20T14:14:12.326Z,45.80
2022-09-20T14:16:40.962Z,46.00
2022-09-20T14:19:17.253Z,45.20
2022-09-20T14:21:44.784Z,45.40
2022-09-20T14:24:16.435Z,46.20
2022-09-20T14:26:59.237Z,45.80
2022-09-20T14:29:49.288Z,45.20
2022-09-20T14:32:21.566Z,45.30
2022-09-20T14:35:29.464Z,45.20
2022-09-20T14:38:10.235Z,45.10
2022-09-20T14:40:47.035Z,45.70
2022-09-20T14:43:23.941Z,45.40
2022-09-20T14:45:56.052Z,45.10
2022-09-20T14:48:22.790Z,45.80
2022-09-20T14:51:17.840Z,46.90
2022-09-20T14:54:11.483Z,45.50
2022-09-20T14:56:41.281Z,46.50
2022-09-20T14:59:16.992Z,46.20
2022-09-20T15:01:53.928Z,45.50
2022-09-20T15:04:21.879Z,45.90
2022-09-20T15:06:52.644Z,46.40
2022-09-20T15:09:21.653Z,47.30
2022-09-20T15:12:02.162Z,46.60
2022-09-20T15:14:36.988Z,45.80
2022-09-20T15:17:07.452Z,46.60
2022-09-20T15:19:36.262Z,46.60
2022-09-20T15:22:02.955Z,46.50
2022-09-20T15:24:29.736Z,46.80
2022-09-20T15:26:56.489Z,46.60
2022-09-20T15:29:26.254Z,46.70
2022-09-20T15:31:52.893Z,46.70
2022-09-20T15:34:19.702Z,47.60
2022-09-20T15:36:46.409Z,48.30
2022-09-20T15:39:15.475Z,48.70
2022-09-20T15:41:45.939Z,48.80
2022-09-20T15:44:17.862Z,48.50
2022-09-20T15:46:44.774Z,48.10
2022-09-20T15:49:14.880Z,48.20
2022-09-20T15:51:45.155Z,47.50
2022-09-20T15:54:14.588Z,46.90
2022-09-20T15:56:41.989Z,47.80
2022-09-20T15:59:11.669Z,48.80
2022-09-20T16:01:43.392Z,49.10
2022-09-20T16:04:21.097Z,50.10
2022-09-20T16:06:49.915Z,50.60
2022-09-20T16:09:18.118Z,49.80
2022-09-20T16:11:48.329Z,49.90
2022-09-20T16:14:17.396Z,49.80
2022-09-20T16:16:44.177Z,49.50
2022-09-20T16:19:20.400Z,49.00
2022-09-20T16:21:57.730Z,48.10
2022-09-20T16:24:28.071Z,48.20
2022-09-20T16:26:55.101Z,49.00
2022-09-20T16:29:25.593Z,50.00
2022-09-20T16:31:57.478Z,49.70
2022-09-20T16:34:31.335Z,49.20
2022-09-20T16:37:05.671Z,49.70
2022-09-20T16:39:37.004Z,49.30
2022-09-20T16:42:12.259Z,49.40
2022-09-20T16:44:44.439Z,50.30
2022-09-20T16:47:18.106Z,50.00
2022-09-20T16:49:50.149Z,50.90
2022-09-20T16:52:17.399Z,51.00
2022-09-20T16:54:44.659Z,50.80
2022-09-20T16:57:13.214Z,51.10
2022-09-20T16:59:42.675Z,51.40
2022-09-20T17:02:12.391Z,51.50
2022-09-20T17:04:43.509Z,51.90
2022-09-20T17:07:10.252Z,52.20
2022-09-20T17:09:37.026Z,52.00
2022-09-20T17:12:09.160Z,52.50
2022-09-20T17:14:38.152Z,52.90
2022-09-20T17:17:04.919Z,52.20
2022-09-20T17:19:31.584Z,53.40
2022-09-20T17:21:58.230Z,54.20
2022-09-20T17:24:27.195Z,54.80
2022-09-20T17:26:55.977Z,55.30
2022-09-20T17:29:24.974Z,55.10
2022-09-20T17:31:56.266Z,56.00
2022-09-20T17:34:25.554Z,56.10
2022-09-20T17:36:55.357Z,56.20
2022-09-20T17:39:24.372Z,57.40
2022-09-20T17:41:57.841Z,56.40
2022-09-20T17:44:29.545Z,55.80
2022-09-20T17:46:58.540Z,56.20
2022-09-20T17:49:27.563Z,56.00
2022-09-20T17:51:55.679Z,56.30
2022-09-20T17:54:25.357Z,56.10
2022-09-20T17:56:55.770Z,56.40
2022-09-20T17:59:22.769Z,56.10
2022-09-20T18:01:51.083Z,56.90
2022-09-20T18:04:21.307Z,56.80
2022-09-20T18:06:54.562Z,55.90
2022-09-20T18:09:25.756Z,56.70
2022-09-20T18:11:56.537Z,56.10
2022-09-20T18:14:28.000Z,55.90
2022-09-20T18:17:01.027Z,56.50
2022-09-20T18:19:35.752Z,56.50
2022-09-20T18:22:04.735Z,56.20
2022-09-20T18:24:31.618Z,55.80
2022-09-20T18:27:00.430Z,56.40
2022-09-20T18:29:31.574Z,56.10
2022-09-20T18:31:59.811Z,56.20
2022-09-20T18:34:31.150Z,56.10
2022-09-20T18:36:59.777Z,56.80
2022-09-20T18:39:32.291Z,56.90
2022-09-20T18:41:59.912Z,57.20
2022-09-20T18:44:33.500Z,57.50
2022-09-20T18:47:04.714Z,56.90
2022-09-20T18:49:32.559Z,56.90
2022-09-20T18:52:01.845Z,57.30
2022-09-20T18:54:33.298Z,57.40
2022-09-20T18:57:04.980Z,57.50
2022-09-20T18:59:33.982Z,57.40
2022-09-20T19:02:18.510Z,57.50
2022-09-20T19:04:49.166Z,57.40
2022-09-20T19:07:28.274Z,57.80
2022-09-20T19:10:18.507Z,57.90
2022-09-20T19:12:57.799Z,57.80
2022-09-20T19:15:48.793Z,57.40
2022-09-20T19:18:44.251Z,57.50
2022-09-20T19:21:24.064Z,57.20
2022-09-20T19:24:03.575Z,57.30
2022-09-20T19:26:38.055Z,57.30
2022-09-20T19:29:20.055Z,57.60
2022-09-20T19:31:53.468Z,57.00
2022-09-20T19:34:25.517Z,57.00
2022-09-20T19:36:58.133Z,56.80
2022-09-20T19:39:59.057Z,57.20
2022-09-20T19:42:43.425Z,57.40
2022-09-20T19:45:41.965Z,58.70
2022-09-20T19:48:14.394Z,58.00
2022-09-20T19:50:48.130Z,58.50
2022-09-20T19:53:17.206Z,59.00
2022-09-20T19:55:56.771Z,58.70
2022-09-20T19:58:26.260Z,59.90
2022-09-20T20:00:53.341Z,59.50
2022-09-20T20:03:23.483Z,59.70
2022-09-20T20:06:07.715Z,59.30
2022-09-20T20:08:54.903Z,60.00
2022-09-20T20:11:41.654Z,59.50
2022-09-20T20:14:20.904Z,59.80
2022-09-20T20:17:12.679Z,60.20
2022-09-20T20:19:58.199Z,59.30
2022-09-20T20:22:43.147Z,59.50
2022-09-20T20:25:38.564Z,60.10
2022-09-20T20:28:05.326Z,60.30
2022-09-20T20:30:32.343Z,60.90
2022-09-20T20:32:59.913Z,60.50
2022-09-20T20:35:27.024Z,60.60
2022-09-20T20:37:54.182Z,60.10
2022-09-20T20:40:21.049Z,60.20
2022-09-20T20:42:47.805Z,60.50
2022-09-20T20:45:14.583Z,60.60
2022-09-20T20:47:42.614Z,60.70
2022-09-20T20:50:11.800Z,61.00
2022-09-20T20:52:38.697Z,61.50
2022-09-20T20:55:06.182Z,61.50
2022-09-20T20:57:33.695Z,61.60
2022-09-20T21:00:00.827Z,61.50
2022-09-20T21:02:27.757Z,61.80
2022-09-20T21:04:56.751Z,61.80
2022-09-20T21:07:23.460Z,62.10
2022-09-20T21:09:50.144Z,62.30
2022-09-20T21:12:18.345Z,62.40
2022-09-20T21:14:45.558Z,62.60
2022-09-20T21:17:12.202Z,62.80
2022-09-20T21:19:38.836Z,62.80
2022-09-20T21:22:05.508Z,62.80
2022-09-20T21:24:32.265Z,62.90
2022-09-20T21:27:03.598Z,63.10
2022-09-20T21:29:34.790Z,63.20
2022-09-20T21:32:04.115Z,62.70
2022-09-20T21:34:32.997Z,62.80
2022-09-20T21:37:00.179Z,62.70
2022-09-20T21:39:31.749Z,62.60
2022-09-20T21:41:58.989Z,62.70
2022-09-20T21:44:25.632Z,63.30
2022-09-20T21:46:52.317Z,63.30
2022-09-20T21:49:18.988Z,63.40
2022-09-20T21:51:45.670Z,63.60
2022-09-20T21:54:12.505Z,63.60
2022-09-20T21:56:41.172Z,63.60
2022-09-20T21:59:09.353Z,63.60
2022-09-20T22:01:37.908Z,63.50
2022-09-20T22:04:07.091Z,63.20
2022-09-20T22:06:36.390Z,63.20
2022-09-20T22:09:08.272Z,63.20
2022-09-20T22:11:39.016Z,62.80
2022-09-20T22:14:07.356Z,62.50
2022-09-20T22:16:38.942Z,62.70
2022-09-20T22:19:09.623Z,62.70
2022-09-20T22:21:41.582Z,63.00
2022-09-20T22:24:10.385Z,63.20
2022-09-20T22:26:38.772Z,62.90
2022-09-20T22:29:06.456Z,63.20
2022-09-20T22:31:38.924Z,63.50
2022-09-20T22:34:08.470Z,63.50
2022-09-20T22:36:38.064Z,64.60
2022-09-20T22:39:09.667Z,65.00
2022-09-20T22:41:41.245Z,64.40
2022-09-20T22:44:08.401Z,64.80
2022-09-20T22:46:35.707Z,64.90
2022-09-20T22:49:05.615Z,65.00
2022-09-20T22:51:35.351Z,65.10
2022-09-20T22:54:08.507Z,65.30
2022-09-20T22:56:36.182Z,65.50
2022-09-20T22:59:15.890Z,65.50
2022-09-20T23:01:47.349Z,65.50
2022-09-20T23:04:19.091Z,65.60
2022-09-20T23:06:57.187Z,65.90
2022-09-20T23:09:26.075Z,65.70
2022-09-20T23:11:55.579Z,66.00
2022-09-20T23:14:23.054Z,66.00
2022-09-20T23:16:49.895Z,66.40
2022-09-20T23:19:18.858Z,66.40
2022-09-20T23:21:45.999Z,66.50
2022-09-20T23:24:14.336Z,66.30
2022-09-20T23:26:42.034Z,66.60
2022-09-20T23:29:13.997Z,67.10
2022-09-20T23:31:45.869Z,67.00
2022-09-20T23:34:16.118Z,66.80
2022-09-20T23:36:43.634Z,66.60
2022-09-20T23:39:12.911Z,66.80
2022-09-20T23:41:43.213Z,66.60
2022-09-20T23:44:11.593Z,66.70
2022-09-20T23:46:40.796Z,66.70
2022-09-20T23:49:09.701Z,67.00
2022-09-20T23:51:38.551Z,67.10
2022-09-20T23:54:08.479Z,67.30
2022-09-20T23:56:35.801Z,67.10
2022-09-20T23:59:02.504Z,66.90
